Portada
METAR-TAF:

METAR-TAF

Aeroports :

Tabuk, Aràbia Saudita

latitud: 28-22N, longitud: 036-36E, altitud: 778 m

Observació

L'informe es va fer fa 20 minuts, a les 12:00 UTC
Vent calma
Temperatura 16°C
Humitat 25%
Pressió 1016 hPa
Visibilitat 10 km o més
sense núvols per sota de 1500 mi sense presència de cumulonimbus.

METAR: OETB 191200Z 00000KT CAVOK 16/M04 Q1016 NOSIG

Hora: 15:20 (12:20 UTC)

Pronòstic

L'informe es va fer fa 1 hora i 20 minuts, a les 11:00 UTC
Pronòstic vàlid del 19 a les 12 UTC al 20 a les 18 UTC
Vent 8 kt del Nord/Nord-Oest
Visibilitat 10 km o més
sense núvols per sota de 1500 mi sense presència de cumulonimbus.
Evolucionant progressivament
l' 19 a les 18 UTC al 19 a les 20 UTC
Vent 3 kt amb direcció variable
Visibilitat: 6000 m
Escasses núvols a una alçada de 3000 ft

TAF: OETB 191100Z 1912/2018 34008KT CAVOK BECMG 1918/1920 VRB03KT 6000 FEW030

Observacions i pronòstics meteorològics de més de 4000 aeroports (METAR i TAF).

Les estacions disponibles són els punts grocs i vermells al mapa.

Posi el ratolí al punt desitjat per veure el nom de l'estació.

Feu clic per veure les observacions i els pronòstics meteorològics.

Per canviar el mapa: feu clic els botons verds amb una creu de color negre per apropar; al botó verd amb un guió per allunyar la imatge; o en les fletxes verdes per a mapes adjacents.


METAR-TAF: